Time;durP1;ratioP1;P1;durP2;ratioP2;P2;SDS_P1;SDS_P2;PMS_P1;PMS_P2;Temp;Humidity;BMP_temperature;BMP_pressure;BME280_temperature;BME280_humidity;BME280_pressure;Samples;Min_cycle;Max_cycle;Signal;HPM_P1;HPM_P2
2023/02/06 00:00:39;;;;;;;;;;;;;;;0.92;100.00;98439.72;5022507;28;19924;-71
2023/02/06 00:03:05;;;;;;;;;;;;;;;1.04;100.00;98449.50;5034669;28;19917;-70
2023/02/06 00:05:30;;;;;;;;;;;;;;;1.09;100.00;98446.81;5037840;28;20321;-69
2023/02/06 00:07:56;;;;;;;;;;;;;;;1.11;100.00;98445.47;5039144;28;20019;-68
2023/02/06 00:10:22;;;;;;;;;;;;;;;1.02;100.00;98452.44;5038333;28;20337;-68
2023/02/06 00:12:47;;;;;;;;;;;;;;;1.11;100.00;98447.38;5042682;28;19917;-68
2023/02/06 00:15:12;;;;;;;;;;;;;;;1.09;100.00;98444.13;5033863;28;19987;-68
2023/02/06 00:17:37;;;;;;;;;;;;;;;1.18;100.00;98445.25;5042896;28;19928;-68
2023/02/06 00:20:04;;;;;;;;;;;;;;;1.10;100.00;98443.06;5039651;28;20278;-68
2023/02/06 00:22:30;;;;;;;;;;;;;;;1.09;100.00;98446.81;5042469;28;19928;-68
2023/02/06 00:24:55;;;;;;;;;;;;;;;1.10;100.00;98443.88;5041508;28;19921;-69
2023/02/06 00:27:20;;;;;;;;;;;;;;;1.08;100.00;98447.88;5037312;28;20416;-69
2023/02/06 00:29:45;;;;;;;;;;;;;;;1.01;100.00;98439.22;5041719;28;19924;-68
2023/02/06 00:32:11;;;;;;;;;;;;;;;0.79;100.00;98436.66;5037368;28;19963;-68
2023/02/06 00:34:36;;;;;;;;;;;;;;;0.79;100.00;98442.88;5028373;28;20016;-68
2023/02/06 00:37:01;;;;;;;;;;;;;;;0.72;100.00;98453.06;5022135;28;19924;-69
2023/02/06 00:39:27;;;;;;;;;;;;;;;0.88;100.00;98448.59;5018025;28;20323;-68
2023/02/06 00:41:54;;;;;;;;;;;;;;;0.93;100.00;98448.63;5022716;28;20090;-68
2023/02/06 00:44:20;;;;;;;;;;;;;;;0.83;100.00;98448.56;5021131;28;19921;-69
2023/02/06 00:46:45;;;;;;;;;;;;;;;0.77;100.00;98450.41;5022931;28;19921;-69
2023/02/06 00:49:10;;;;;;;;;;;;;;;0.81;100.00;98450.69;5018774;28;19924;-69
2023/02/06 00:51:37;;;;;;;;;;;;;;;1.03;100.00;98446.00;5020749;28;20370;-69
2023/02/06 00:54:03;;;;;;;;;;;;;;;0.96;100.00;98450.81;5019789;28;19924;-68
2023/02/06 00:56:28;;;;;;;;;;;;;;;0.90;100.00;98452.66;5019356;28;20371;-68
2023/02/06 00:58:53;;;;;;;;;;;;;;;0.95;100.00;98436.50;5022293;28;19917;-69
2023/02/06 01:01:19;;;;;;;;;;;;;;;0.89;100.00;98434.84;5019267;28;19921;-69
2023/02/06 01:03:44;;;;;;;;;;;;;;;0.70;100.00;98441.72;5040543;28;19923;-69
2023/02/06 01:06:09;;;;;;;;;;;;;;;0.74;100.00;98440.97;5024816;28;19917;-69
2023/02/06 01:08:34;;;;;;;;;;;;;;;0.54;100.00;98440.81;5032615;28;20349;-69
2023/02/06 01:11:00;;;;;;;;;;;;;;;0.20;100.00;98443.78;5028535;28;19960;-68
2023/02/06 01:13:25;;;;;;;;;;;;;;;0.16;100.00;98443.50;5018204;28;19917;-70
2023/02/06 01:15:50;;;;;;;;;;;;;;;0.19;100.00;98450.25;5025252;28;19921;-68
2023/02/06 01:18:16;;;;;;;;;;;;;;;0.18;100.00;98446.75;5020830;28;19917;-69
2023/02/06 01:20:41;;;;;;;;;;;;;;;0.19;100.00;98452.94;5025837;28;19921;-68
2023/02/06 01:23:06;;;;;;;;;;;;;;;0.07;100.00;98453.06;5020010;28;20378;-68
2023/02/06 01:25:31;;;;;;;;;;;;;;;0.05;100.00;98457.09;5025597;28;19921;-69
2023/02/06 01:27:57;;;;;;;;;;;;;;;0.10;100.00;98454.47;5025978;28;20054;-69
2023/02/06 01:30:22;;;;;;;;;;;;;;;0.31;100.00;98456.28;5018089;28;20008;-68
2023/02/06 01:32:47;;;;;;;;;;;;;;;0.56;100.00;98454.88;5024960;28;19936;-68
2023/02/06 01:35:13;;;;;;;;;;;;;;;0.67;100.00;98461.16;5019987;28;19925;-68
2023/02/06 01:37:38;;;;;;;;;;;;;;;0.80;100.00;98459.88;5006753;28;19917;-71
2023/02/06 01:40:04;;;;;;;;;;;;;;;0.80;100.00;98449.91;5021658;28;19921;-68
2023/02/06 01:42:32;;;;;;;;;;;;;;;0.69;100.00;98451.72;5024732;28;19973;-69
2023/02/06 01:45:16;;;;;;;;;;;;;;;0.73;100.00;98449.31;5024110;28;20459;-70
2023/02/06 01:47:41;;;;;;;;;;;;;;;0.80;100.00;98455.28;5024351;28;19924;-69
2023/02/06 01:50:07;;;;;;;;;;;;;;;0.67;100.00;98451.16;5020228;28;20015;-69
2023/02/06 01:52:32;;;;;;;;;;;;;;;0.55;100.00;98455.91;5024845;28;19928;-69
2023/02/06 01:54:59;;;;;;;;;;;;;;;0.55;100.00;98450.53;5024763;28;19925;-69
2023/02/06 01:57:26;;;;;;;;;;;;;;;0.56;100.00;98452.16;5018670;28;19921;-70
2023/02/06 01:59:53;;;;;;;;;;;;;;;0.60;100.00;98447.06;5024450;28;19924;-70
2023/02/06 02:02:20;;;;;;;;;;;;;;;0.72;100.00;98442.28;5031308;28;19927;-69
2023/02/06 02:04:45;;;;;;;;;;;;;;;0.75;100.00;98442.56;5044466;28;19917;-69
2023/02/06 02:07:31;;;;;;;;;;;;;;;0.94;100.00;98452.97;5033586;28;19932;-70
2023/02/06 02:09:56;;;;;;;;;;;;;;;0.87;100.00;98438.88;5018234;28;20385;-70
2023/02/06 02:12:21;;;;;;;;;;;;;;;0.71;100.00;98436.06;5040205;28;20077;-70
2023/02/06 02:14:48;;;;;;;;;;;;;;;0.37;100.00;98430.97;5043996;28;20092;-69
2023/02/06 02:17:13;;;;;;;;;;;;;;;0.44;100.00;98429.97;5039460;28;20309;-68
2023/02/06 02:19:38;;;;;;;;;;;;;;;0.52;100.00;98427.59;5044498;28;19921;-69
2023/02/06 02:22:04;;;;;;;;;;;;;;;0.44;100.00;98424.56;5039109;28;20286;-69
2023/02/06 02:24:39;;;;;;;;;;;;;;;0.41;100.00;98414.28;5026072;28;19971;-69
2023/02/06 02:27:04;;;;;;;;;;;;;;;0.71;100.00;98417.19;5039656;28;19917;-70
2023/02/06 02:29:45;;;;;;;;;;;;;;;0.72;100.00;98423.41;5043998;28;19921;-69
2023/02/06 02:32:17;;;;;;;;;;;;;;;0.74;100.00;98430.19;5040576;28;19925;-67
2023/02/06 02:34:51;;;;;;;;;;;;;;;0.45;100.00;98426.19;5035802;28;19947;-68
2023/02/06 02:37:25;;;;;;;;;;;;;;;0.54;100.00;98424.63;5019383;28;19921;-69
2023/02/06 02:39:50;;;;;;;;;;;;;;;0.18;100.00;98416.25;5023533;28;20032;-68
2023/02/06 02:42:23;;;;;;;;;;;;;;;0.02;100.00;98417.19;5019780;28;20409;-68
2023/02/06 02:44:48;;;;;;;;;;;;;;;0.09;100.00;98417.81;5023951;28;20008;-70
2023/02/06 02:47:15;;;;;;;;;;;;;;;-0.08;100.00;98410.66;5019607;28;20377;-68
2023/02/06 02:49:42;;;;;;;;;;;;;;;-0.13;100.00;98417.88;5024419;28;20001;-68
2023/02/06 02:52:08;;;;;;;;;;;;;;;-0.10;100.00;98410.09;5019151;28;19968;-69
2023/02/06 02:54:33;;;;;;;;;;;;;;;-0.03;100.00;98413.41;5023055;28;20392;-70
2023/02/06 02:57:06;;;;;;;;;;;;;;;-0.17;100.00;98414.88;5004970;28;19928;-69
2023/02/06 02:59:35;;;;;;;;;;;;;;;-0.24;100.00;98411.56;5022895;28;19928;-68
2023/02/06 03:02:08;;;;;;;;;;;;;;;-0.18;100.00;98415.97;5032862;28;19939;-68
2023/02/06 03:04:39;;;;;;;;;;;;;;;-0.27;100.00;98404.84;5043309;28;20382;-68
2023/02/06 03:07:08;;;;;;;;;;;;;;;-0.28;100.00;98413.97;5034622;28;19917;-68
2023/02/06 03:09:36;;;;;;;;;;;;;;;-0.27;100.00;98417.47;5044211;28;19928;-68
2023/02/06 03:12:10;;;;;;;;;;;;;;;-0.26;100.00;98419.09;5045952;28;20402;-68
2023/02/06 03:14:42;;;;;;;;;;;;;;;-0.28;100.00;98421.25;5045390;28;19923;-68
2023/02/06 03:17:14;;;;;;;;;;;;;;;-0.29;100.00;98412.34;5039690;28;19929;-68
2023/02/06 03:19:44;;;;;;;;;;;;;;;-0.29;100.00;98408.84;5043396;28;19940;-68
2023/02/06 03:22:11;;;;;;;;;;;;;;;-0.29;100.00;98412.34;5038903;28;19920;-68
2023/02/06 03:24:38;;;;;;;;;;;;;;;-0.22;100.00;98410.28;5043715;28;19921;-68
2023/02/06 03:27:06;;;;;;;;;;;;;;;-0.23;100.00;98413.22;5039461;28;19948;-68
2023/02/06 03:29:33;;;;;;;;;;;;;;;-0.20;100.00;98426.16;5043339;28;19928;-68
2023/02/06 03:32:10;;;;;;;;;;;;;;;-0.14;100.00;98419.78;5024256;28;20396;-69
2023/02/06 03:34:35;;;;;;;;;;;;;;;-0.04;100.00;98427.94;5037845;28;20374;-67
2023/02/06 03:37:00;;;;;;;;;;;;;;;-0.13;100.00;98432.16;5023354;28;19972;-68
2023/02/06 03:39:26;;;;;;;;;;;;;;;0.01;100.00;98439.84;5020143;28;19921;-68
2023/02/06 03:41:52;;;;;;;;;;;;;;;0.26;100.00;98431.97;5024729;28;20016;-68
2023/02/06 03:44:21;;;;;;;;;;;;;;;0.23;100.00;98432.47;5019626;28;20441;-68
2023/02/06 03:46:46;;;;;;;;;;;;;;;-0.02;100.00;98441.13;5022783;28;19933;-68
2023/02/06 03:49:13;;;;;;;;;;;;;;;0.04;100.00;98444.69;5017695;28;20345;-68
2023/02/06 03:51:47;;;;;;;;;;;;;;;0.02;100.00;98449.53;5022337;28;19917;-68
2023/02/06 03:54:15;;;;;;;;;;;;;;;0.07;100.00;98450.38;5018199;28;19917;-67
2023/02/06 03:56:50;;;;;;;;;;;;;;;-0.03;100.00;98453.00;5021678;28;19924;-68
2023/02/06 03:59:15;;;;;;;;;;;;;;;0.01;100.00;98461.38;5018184;28;19932;-68
2023/02/06 04:01:43;;;;;;;;;;;;;;;0.09;100.00;98442.06;5028645;28;19917;-68
2023/02/06 04:04:08;;;;;;;;;;;;;;;0.10;100.00;98449.06;5037668;28;19920;-68
2023/02/06 04:06:33;;;;;;;;;;;;;;;0.06;100.00;98445.28;5039291;28;19924;-68
2023/02/06 04:08:59;;;;;;;;;;;;;;;0.01;100.00;98447.91;5038505;28;19986;-68
2023/02/06 04:11:24;;;;;;;;;;;;;;;0.05;100.00;98443.63;5037514;28;19963;-68
2023/02/06 04:13:49;;;;;;;;;;;;;;;0.15;100.00;98446.44;5023947;28;20332;-68
2023/02/06 04:16:15;;;;;;;;;;;;;;;0.22;100.00;98449.72;5035188;28;20406;-68
2023/02/06 04:18:40;;;;;;;;;;;;;;;0.52;100.00;98448.34;5041822;28;19932;-68
2023/02/06 04:21:06;;;;;;;;;;;;;;;0.36;100.00;98439.31;5036677;28;19920;-68
2023/02/06 04:23:32;;;;;;;;;;;;;;;0.29;100.00;98436.84;5042312;28;19916;-68
2023/02/06 04:25:57;;;;;;;;;;;;;;;0.18;100.00;98438.66;5041905;28;19935;-68
2023/02/06 04:28:22;;;;;;;;;;;;;;;0.06;100.00;98434.50;5036083;28;20421;-68
2023/02/06 04:30:48;;;;;;;;;;;;;;;0.04;100.00;98432.06;5042030;28;19931;-68
2023/02/06 04:33:13;;;;;;;;;;;;;;;0.03;100.00;98432.31;5036916;28;19917;-67
2023/02/06 04:35:38;;;;;;;;;;;;;;;0.06;100.00;98429.13;5042461;28;20366;-70
2023/02/06 04:38:03;;;;;;;;;;;;;;;0.14;100.00;98426.75;5038335;28;19987;-68
2023/02/06 04:40:29;;;;;;;;;;;;;;;0.25;100.00;98427.63;5021485;28;19921;-68
2023/02/06 04:42:54;;;;;;;;;;;;;;;0.25;100.00;98424.13;5021472;28;19925;-68
2023/02/06 04:45:19;;;;;;;;;;;;;;;0.48;100.00;98414.88;4998832;28;19925;-68
2023/02/06 04:47:48;;;;;;;;;;;;;;;0.36;100.00;98418.59;5023415;28;20382;-66
2023/02/06 04:50:13;;;;;;;;;;;;;;;0.43;100.00;98418.34;5020329;28;19924;-68
2023/02/06 04:52:39;;;;;;;;;;;;;;;0.56;100.00;98406.31;5007521;28;19921;-68
2023/02/06 04:55:04;;;;;;;;;;;;;;;0.46;100.00;98411.63;5022965;28;19917;-68
2023/02/06 04:57:29;;;;;;;;;;;;;;;0.56;100.00;98406.31;5024810;28;20015;-68
2023/02/06 04:59:55;;;;;;;;;;;;;;;0.29;100.00;98418.00;5026176;28;20469;-68
2023/02/06 05:02:20;;;;;;;;;;;;;;;0.38;100.00;98413.75;5032533;28;20333;-68
2023/02/06 05:04:45;;;;;;;;;;;;;;;0.29;100.00;98412.59;5026901;28;19917;-68
2023/02/06 05:07:10;;;;;;;;;;;;;;;0.17;100.00;98418.16;5033882;28;20402;-68
2023/02/06 05:09:36;;;;;;;;;;;;;;;0.21;100.00;98417.66;5039760;28;19970;-68
2023/02/06 05:12:01;;;;;;;;;;;;;;;0.19;100.00;98412.50;5035034;28;20305;-68
2023/02/06 05:14:27;;;;;;;;;;;;;;;0.17;100.00;98415.47;5022295;28;19917;-73
2023/02/06 05:16:52;;;;;;;;;;;;;;;0.28;100.00;98405.56;5026629;28;19917;-73
2023/02/06 05:19:17;;;;;;;;;;;;;;;0.12;100.00;98409.22;5022122;28;20690;-73
2023/02/06 05:21:42;;;;;;;;;;;;;;;0.10;100.00;98412.16;5025971;28;19921;-74
2023/02/06 05:24:08;;;;;;;;;;;;;;;0.11;100.00;98408.41;5019449;28;19921;-73
2023/02/06 05:26:33;;;;;;;;;;;;;;;0.27;100.00;98412.06;5025253;28;20349;-74
2023/02/06 05:28:58;;;;;;;;;;;;;;;0.19;100.00;98393.66;5025627;28;20336;-73
2023/02/06 05:31:24;;;;;;;;;;;;;;;0.16;100.00;98395.00;5021607;28;19917;-73
2023/02/06 05:33:52;;;;;;;;;;;;;;;0.15;100.00;98398.75;5024230;28;19921;-73
2023/02/06 05:36:18;;;;;;;;;;;;;;;0.21;100.00;98398.78;5021469;28;19924;-74
2023/02/06 05:38:43;;;;;;;;;;;;;;;0.12;100.00;98396.53;5026977;28;19921;-73
2023/02/06 05:41:08;;;;;;;;;;;;;;;0.07;100.00;98390.31;5023903;28;20277;-74
2023/02/06 05:43:33;;;;;;;;;;;;;;;0.02;100.00;98391.09;5010602;28;19952;-73
2023/02/06 05:45:59;;;;;;;;;;;;;;;0.04;100.00;98399.72;5024776;28;19971;-72
2023/02/06 05:48:27;;;;;;;;;;;;;;;0.03;100.00;98390.00;5020286;28;19921;-73
2023/02/06 05:50:52;;;;;;;;;;;;;;;0.00;100.00;98393.25;5024953;28;19963;-72
2023/02/06 05:53:18;;;;;;;;;;;;;;;0.03;100.00;98394.59;5020512;28;19921;-72
2023/02/06 05:55:43;;;;;;;;;;;;;;;0.09;100.00;98398.94;5024778;28;20388;-72
2023/02/06 05:58:08;;;;;;;;;;;;;;;0.14;100.00;98393.59;5001853;28;19925;-71
2023/02/06 06:00:34;;;;;;;;;;;;;;;0.16;100.00;98399.53;5024577;28;19917;-72
2023/02/06 06:02:59;;;;;;;;;;;;;;;0.19;100.00;98396.34;5042020;28;19986;-72
2023/02/06 06:05:24;;;;;;;;;;;;;;;0.33;100.00;98385.94;5021586;28;19917;-72
2023/02/06 06:07:51;;;;;;;;;;;;;;;0.32;100.00;98389.69;5038751;28;20205;-72
2023/02/06 06:10:17;;;;;;;;;;;;;;;0.39;100.00;98395.69;5031674;28;20460;-71
2023/02/06 06:12:42;;;;;;;;;;;;;;;0.24;100.00;98393.69;5043682;28;19917;-71
2023/02/06 06:15:08;;;;;;;;;;;;;;;0.43;100.00;98385.19;5039862;28;19924;-71
2023/02/06 06:17:33;;;;;;;;;;;;;;;0.40;100.00;98391.09;5026425;28;20015;-72
2023/02/06 06:19:58;;;;;;;;;;;;;;;0.33;100.00;98396.72;5032740;28;19972;-72
2023/02/06 06:22:23;;;;;;;;;;;;;;;0.19;100.00;98390.94;5001612;28;19913;-71
2023/02/06 06:24:49;;;;;;;;;;;;;;;0.34;100.00;98387.56;5025080;28;20380;-71
2023/02/06 06:27:14;;;;;;;;;;;;;;;0.21;100.00;98391.50;5020058;28;19924;-71
2023/02/06 06:29:39;;;;;;;;;;;;;;;0.27;100.00;98398.56;5025451;28;19967;-72
2023/02/06 06:32:04;;;;;;;;;;;;;;;0.22;100.00;98385.06;5008194;28;19917;-70
2023/02/06 06:34:30;;;;;;;;;;;;;;;0.24;100.00;98385.59;5034584;28;19925;-70
2023/02/06 06:36:55;;;;;;;;;;;;;;;0.38;100.00;98385.97;5023372;28;20340;-70
2023/02/06 06:39:21;;;;;;;;;;;;;;;0.49;100.00;98394.97;5039515;28;19928;-70
2023/02/06 06:41:46;;;;;;;;;;;;;;;0.54;100.00;98385.00;5023707;28;19924;-70
2023/02/06 06:44:14;;;;;;;;;;;;;;;0.24;100.00;98384.81;5019483;28;19917;-70
2023/02/06 06:46:40;;;;;;;;;;;;;;;0.22;100.00;98393.13;5024365;28;19917;-70
2023/02/06 06:49:05;;;;;;;;;;;;;;;0.41;100.00;98404.31;5003651;28;19924;-72
2023/02/06 06:51:30;;;;;;;;;;;;;;;0.62;100.00;98412.56;5006876;28;19921;-71
2023/02/06 06:53:56;;;;;;;;;;;;;;;0.20;100.00;98422.22;5014438;28;19917;-70
2023/02/06 06:56:21;;;;;;;;;;;;;;;0.31;100.00;98426.63;5001182;28;20257;-71
2023/02/06 06:58:47;;;;;;;;;;;;;;;0.30;100.00;98432.28;5025216;28;20002;-71
2023/02/06 07:01:13;;;;;;;;;;;;;;;0.01;100.00;98431.75;5017623;28;19963;-70
2023/02/06 07:03:42;;;;;;;;;;;;;;;0.04;100.00;98426.66;5032876;28;19967;-71
2023/02/06 07:06:08;;;;;;;;;;;;;;;0.32;100.00;98432.81;5039011;28;19927;-72
2023/02/06 07:08:39;;;;;;;;;;;;;;;0.23;100.00;98421.69;5033203;28;20491;-70
2023/02/06 07:11:04;;;;;;;;;;;;;;;0.13;100.00;98419.75;5037727;28;19921;-73
2023/02/06 07:13:29;;;;;;;;;;;;;;;0.16;100.00;98413.84;5045093;28;20397;-71
2023/02/06 07:15:55;;;;;;;;;;;;;;;0.15;100.00;98417.59;5045421;28;19921;-72
2023/02/06 07:18:20;;;;;;;;;;;;;;;0.06;100.00;98418.34;5039850;28;19917;-71
2023/02/06 07:20:45;;;;;;;;;;;;;;;0.17;100.00;98425.44;5042434;28;20440;-72
2023/02/06 07:23:11;;;;;;;;;;;;;;;0.13;100.00;98427.03;5031884;28;19920;-71
2023/02/06 07:25:36;;;;;;;;;;;;;;;0.38;100.00;98429.91;5041498;28;19916;-70
2023/02/06 07:28:01;;;;;;;;;;;;;;;0.16;100.00;98424.63;5042340;28;19924;-71
2023/02/06 07:30:27;;;;;;;;;;;;;;;0.02;100.00;98417.19;5041277;28;20020;-70
2023/02/06 07:32:52;;;;;;;;;;;;;;;0.05;100.00;98430.97;5041210;28;19971;-70
2023/02/06 07:35:18;;;;;;;;;;;;;;;-0.14;100.00;98427.84;5019891;28;20027;-71
2023/02/06 07:37:43;;;;;;;;;;;;;;;0.08;100.00;98425.09;5033847;28;20324;-71
2023/02/06 07:40:09;;;;;;;;;;;;;;;-0.08;100.00;98412.53;5032690;28;20341;-69
2023/02/06 07:42:34;;;;;;;;;;;;;;;-0.02;100.00;98412.34;5024592;28;20394;-69
2023/02/06 07:44:59;;;;;;;;;;;;;;;-0.02;100.00;98409.66;5022980;28;19967;-70
2023/02/06 07:47:25;;;;;;;;;;;;;;;-0.13;100.00;98399.81;5017386;28;19924;-70
2023/02/06 07:49:50;;;;;;;;;;;;;;;0.16;100.00;98397.69;5022272;28;19917;-70
2023/02/06 07:52:15;;;;;;;;;;;;;;;-0.09;100.00;98405.53;5018852;28;19917;-70
2023/02/06 07:54:41;;;;;;;;;;;;;;;0.01;100.00;98408.31;5022807;28;20556;-70
2023/02/06 07:57:06;;;;;;;;;;;;;;;-0.02;100.00;98403.44;5019024;28;19925;-70
2023/02/06 07:59:31;;;;;;;;;;;;;;;-0.13;100.00;98386.38;5023858;28;19921;-69
2023/02/06 08:01:56;;;;;;;;;;;;;;;-0.23;100.00;98392.47;5021589;28;20015;-70
2023/02/06 08:04:22;;;;;;;;;;;;;;;-0.18;100.00;98396.28;5021624;28;20209;-70
2023/02/06 08:06:47;;;;;;;;;;;;;;;-0.16;100.00;98392.28;5040543;28;19978;-70
2023/02/06 08:09:13;;;;;;;;;;;;;;;-0.30;100.00;98391.06;5037902;28;19917;-70
2023/02/06 08:11:38;;;;;;;;;;;;;;;-0.25;100.00;98397.31;5042516;28;19967;-70
2023/02/06 08:14:04;;;;;;;;;;;;;;;-0.20;100.00;98401.91;5038719;28;19921;-70
2023/02/06 08:16:29;;;;;;;;;;;;;;;-0.22;100.00;98390.59;5041275;28;19967;-69
2023/02/06 08:18:55;;;;;;;;;;;;;;;-0.13;100.00;98407.09;5042961;28;19916;-70
2023/02/06 08:21:21;;;;;;;;;;;;;;;-0.23;100.00;98405.13;5036533;28;20369;-70
2023/02/06 08:23:47;;;;;;;;;;;;;;;-0.17;100.00;98411.38;5034579;28;19924;-70
2023/02/06 08:26:14;;;;;;;;;;;;;;;-0.15;100.00;98399.28;5037406;28;19921;-71
2023/02/06 08:28:40;;;;;;;;;;;;;;;0.01;100.00;98418.28;5040593;28;19917;-71
2023/02/06 08:31:10;;;;;;;;;;;;;;;0.34;100.00;98417.19;5038186;28;19917;-71
2023/02/06 08:33:36;;;;;;;;;;;;;;;0.31;100.00;98407.75;5042933;28;19917;-71
2023/02/06 08:36:02;;;;;;;;;;;;;;;0.02;100.00;98423.41;5039715;28;19971;-70
2023/02/06 08:38:27;;;;;;;;;;;;;;;0.05;100.00;98428.28;5042407;28;19917;-71
2023/02/06 08:40:53;;;;;;;;;;;;;;;-0.02;100.00;98425.81;5045391;28;20467;-71
2023/02/06 08:43:18;;;;;;;;;;;;;;;-0.04;100.00;98425.25;5038822;28;19925;-70
2023/02/06 08:45:46;;;;;;;;;;;;;;;0.19;100.00;98424.09;5026995;28;20126;-69
2023/02/06 08:48:12;;;;;;;;;;;;;;;0.25;100.00;98433.03;5018763;28;19939;-70
2023/02/06 08:50:37;;;;;;;;;;;;;;;-0.06;100.00;98421.19;5022086;28;20362;-70
2023/02/06 08:53:02;;;;;;;;;;;;;;;-0.07;100.00;98422.25;5018286;28;19925;-70
2023/02/06 08:55:28;;;;;;;;;;;;;;;-0.01;100.00;98426.63;5020299;28;19932;-70
2023/02/06 08:57:53;;;;;;;;;;;;;;;0.20;100.00;98435.72;5021485;28;19999;-70
2023/02/06 09:00:19;;;;;;;;;;;;;;;0.38;100.00;98423.72;5018607;28;20385;-69
2023/02/06 09:02:44;;;;;;;;;;;;;;;1.42;100.00;98428.59;5036939;28;19948;-70
2023/02/06 09:05:10;;;;;;;;;;;;;;;1.13;100.00;98412.84;5021043;28;20410;-70
2023/02/06 09:07:35;;;;;;;;;;;;;;;0.93;100.00;98418.94;5042212;28;19920;-70
2023/02/06 09:10:00;;;;;;;;;;;;;;;0.69;100.00;98402.38;5041940;28;19928;-70
2023/02/06 09:12:26;;;;;;;;;;;;;;;0.86;100.00;98419.16;5037739;28;19955;-70
2023/02/06 09:14:51;;;;;;;;;;;;;;;0.67;100.00;98389.13;5040952;28;19928;-69
2023/02/06 09:17:16;;;;;;;;;;;;;;;0.62;100.00;98412.56;5036048;28;19916;-69
2023/02/06 09:19:41;;;;;;;;;;;;;;;0.69;100.00;98426.63;5042704;28;19980;-70
2023/02/06 09:22:07;;;;;;;;;;;;;;;0.92;100.00;98420.84;5037544;28;19952;-70
2023/02/06 09:24:32;;;;;;;;;;;;;;;1.02;100.00;98425.47;5025301;28;19955;-70
2023/02/06 09:26:57;;;;;;;;;;;;;;;1.74;100.00;98433.03;5042176;28;19920;-70
2023/02/06 09:29:23;;;;;;;;;;;;;;;1.92;100.00;98422.53;5030082;28;19917;-70
2023/02/06 09:31:48;;;;;;;;;;;;;;;2.11;98.77;98422.03;5025848;28;19917;-70
2023/02/06 09:34:13;;;;;;;;;;;;;;;2.61;92.41;98428.53;5020677;28;19952;-70
2023/02/06 09:36:39;;;;;;;;;;;;;;;1.99;95.89;98424.97;5026563;28;20011;-69
2023/02/06 09:39:05;;;;;;;;;;;;;;;1.48;97.80;98422.97;5020949;28;20008;-69
2023/02/06 09:41:45;;;;;;;;;;;;;;;1.75;98.96;98427.38;5025499;28;20358;-70
2023/02/06 09:44:17;;;;;;;;;;;;;;;1.80;99.25;98440.06;5018589;28;20397;-72
2023/02/06 09:46:49;;;;;;;;;;;;;;;1.11;100.00;98434.69;5022184;28;19920;-72
2023/02/06 09:49:24;;;;;;;;;;;;;;;0.83;100.00;98430.50;5040298;28;19917;-72
2023/02/06 09:52:09;;;;;;;;;;;;;;;0.98;100.00;98412.78;5044200;28;19916;-72
2023/02/06 09:54:44;;;;;;;;;;;;;;;1.09;100.00;98419.84;5045183;28;20370;-71
2023/02/06 09:57:13;;;;;;;;;;;;;;;0.81;100.00;98418.34;5041290;28;19925;-71
2023/02/06 09:59:48;;;;;;;;;;;;;;;0.99;100.00;98427.88;5029522;28;19991;-71
2023/02/06 10:02:42;;;;;;;;;;;;;;;1.46;100.00;98417.03;5029873;28;19956;-70
2023/02/06 10:05:09;;;;;;;;;;;;;;;0.73;100.00;98403.47;5027826;28;19973;-70
2023/02/06 10:07:54;;;;;;;;;;;;;;;0.84;100.00;98415.13;5048012;28;19960;-70
2023/02/06 10:10:23;;;;;;;;;;;;;;;2.06;97.16;98422.03;5039798;28;20278;-72
2023/02/06 10:12:57;;;;;;;;;;;;;;;2.87;89.50;98426.56;5044778;28;20012;-70
2023/02/06 10:15:28;;;;;;;;;;;;;;;3.02;88.16;98430.31;5038110;28;20715;-70
2023/02/06 10:17:53;;;;;;;;;;;;;;;3.63;85.09;98430.09;5044252;28;19923;-70
2023/02/06 10:20:21;;;;;;;;;;;;;;;4.10;82.75;98425.19;5039299;28;19921;-70
2023/02/06 10:23:07;;;;;;;;;;;;;;;2.26;88.35;98419.31;5044843;28;20015;-70
2023/02/06 10:25:34;;;;;;;;;;;;;;;1.50;94.34;98407.31;5013015;28;19917;-69
2023/02/06 10:28:01;;;;;;;;;;;;;;;2.36;95.04;98410.41;5045094;28;19920;-70
2023/02/06 10:30:49;;;;;;;;;;;;;;;2.01;91.12;98397.69;5041545;28;20377;-71
2023/02/06 10:33:18;;;;;;;;;;;;;;;1.85;92.21;98396.84;5039260;28;20790;-71
2023/02/06 10:36:04;;;;;;;;;;;;;;;1.26;95.20;98393.47;5044711;28;19921;-71
2023/02/06 10:38:37;;;;;;;;;;;;;;;1.53;95.03;98389.75;5046789;28;19921;-71
2023/02/06 10:41:17;;;;;;;;;;;;;;;1.35;97.46;98393.75;5041743;28;20381;-70
2023/02/06 10:43:50;;;;;;;;;;;;;;;3.19;88.40;98378.56;5044225;28;19951;-71
2023/02/06 10:46:38;;;;;;;;;;;;;;;3.46;87.25;98375.47;5020214;28;19970;-71
2023/02/06 10:49:13;;;;;;;;;;;;;;;3.99;83.92;98362.09;5034830;28;19924;-71
2023/02/06 10:51:42;;;;;;;;;;;;;;;4.79;77.17;98369.00;5043618;28;19921;-71
2023/02/06 10:54:30;;;;;;;;;;;;;;;5.62;72.82;98366.09;5022129;28;19920;-70
2023/02/06 10:56:56;;;;;;;;;;;;;;;4.78;75.97;98350.28;5042680;28;19921;-70
2023/02/06 10:59:27;;;;;;;;;;;;;;;3.31;80.76;98365.50;5037448;28;19928;-72
2023/02/06 11:02:14;;;;;;;;;;;;;;;4.27;80.72;98369.75;5035483;28;19944;-69
2023/02/06 11:04:45;;;;;;;;;;;;;;;5.42;72.11;98364.47;5036368;28;19971;-70
2023/02/06 11:07:14;;;;;;;;;;;;;;;4.72;71.70;98354.16;5036178;28;19917;-70
2023/02/06 11:09:40;;;;;;;;;;;;;;;3.58;79.08;98351.56;5043266;28;20281;-71
2023/02/06 11:12:13;;;;;;;;;;;;;;;4.17;74.68;98360.59;5041363;28;19917;-70
2023/02/06 11:14:39;;;;;;;;;;;;;;;3.94;75.83;98367.59;5044061;28;20405;-70
2023/02/06 11:17:04;;;;;;;;;;;;;;;1.76;88.00;98356.03;5038415;28;20417;-70
2023/02/06 11:19:32;;;;;;;;;;;;;;;1.67;88.43;98357.66;5042698;28;20015;-70
2023/02/06 11:22:03;;;;;;;;;;;;;;;0.99;94.19;98349.63;5043537;28;20378;-70
2023/02/06 11:24:28;;;;;;;;;;;;;;;0.82;95.71;98341.75;5027653;28;20012;-71
2023/02/06 11:26:58;;;;;;;;;;;;;;;1.81;96.50;98342.53;5034428;28;20011;-71
2023/02/06 11:29:30;;;;;;;;;;;;;;;3.37;83.09;98342.72;5036677;28;20398;-71
2023/02/06 11:32:00;;;;;;;;;;;;;;;4.66;81.60;98334.38;5026641;28;19924;-70
2023/02/06 11:34:27;;;;;;;;;;;;;;;3.45;79.59;98331.28;5040613;28;19924;-70
2023/02/06 11:36:54;;;;;;;;;;;;;;;4.93;74.69;98330.28;5043063;28;19935;-71
2023/02/06 11:39:21;;;;;;;;;;;;;;;5.56;71.32;98318.31;5040197;28;19964;-71
2023/02/06 11:41:57;;;;;;;;;;;;;;;5.70;69.99;98323.84;5045711;28;19917;-71
2023/02/06 11:44:26;;;;;;;;;;;;;;;4.59;69.06;98313.03;5040762;28;21105;-71
2023/02/06 11:46:52;;;;;;;;;;;;;;;4.77;74.74;98305.22;5035105;28;19924;-71
2023/02/06 11:49:23;;;;;;;;;;;;;;;5.44;72.04;98307.91;5020698;28;19921;-68
2023/02/06 11:51:50;;;;;;;;;;;;;;;3.18;79.74;98307.34;5043782;28;19924;-69
2023/02/06 11:54:27;;;;;;;;;;;;;;;3.09;82.94;98309.03;5039285;28;19917;-71
2023/02/06 11:56:57;;;;;;;;;;;;;;;4.76;74.06;98295.47;5025690;28;19947;-70
2023/02/06 11:59:24;;;;;;;;;;;;;;;5.24;70.29;98302.75;5039731;28;20374;-71
2023/02/06 12:01:49;;;;;;;;;;;;;;;4.83;73.53;98286.97;5043508;28;19916;-69
2023/02/06 12:04:23;;;;;;;;;;;;;;;5.72;67.49;98284.38;5038887;28;19920;-70
2023/02/06 12:06:51;;;;;;;;;;;;;;;2.47;80.46;98282.19;5041632;28;20007;-69
2023/02/06 12:09:17;;;;;;;;;;;;;;;4.59;76.90;98291.31;5038998;28;19924;-69
2023/02/06 12:11:49;;;;;;;;;;;;;;;4.77;73.58;98289.75;5042750;28;19916;-73
2023/02/06 12:14:17;;;;;;;;;;;;;;;5.35;70.24;98286.00;5038408;28;20012;-69
2023/02/06 12:16:46;;;;;;;;;;;;;;;5.20;69.63;98293.56;5043671;28;19967;-69
2023/02/06 12:19:15;;;;;;;;;;;;;;;4.78;70.64;98293.28;5036767;28;19916;-70
2023/02/06 12:21:47;;;;;;;;;;;;;;;1.72;84.77;98290.13;5040854;28;19924;-69
2023/02/06 12:24:27;;;;;;;;;;;;;;;1.49;87.36;98280.66;5032234;28;20453;-70
2023/02/06 12:26:54;;;;;;;;;;;;;;;2.20;85.52;98276.31;5043766;28;19959;-70
2023/02/06 12:29:40;;;;;;;;;;;;;;;1.52;89.46;98282.84;5039631;28;20289;-70
2023/02/06 12:32:08;;;;;;;;;;;;;;;1.50;94.30;98279.59;5038440;28;19943;-69
2023/02/06 12:34:55;;;;;;;;;;;;;;;2.74;86.41;98294.56;5044155;28;19917;-70
2023/02/06 12:37:25;;;;;;;;;;;;;;;3.88;80.17;98290.09;5038050;28;19976;-70
2023/02/06 12:39:50;;;;;;;;;;;;;;;3.92;77.12;98293.84;5040596;28;20456;-69
2023/02/06 12:42:28;;;;;;;;;;;;;;;3.74;76.59;98284.50;5036632;28;20005;-70
2023/02/06 12:45:00;;;;;;;;;;;;;;;3.36;77.79;98281.53;5042583;28;19917;-68
2023/02/06 12:47:32;;;;;;;;;;;;;;;3.28;77.88;98265.03;5017646;28;20344;-70
2023/02/06 12:50:03;;;;;;;;;;;;;;;2.49;80.63;98260.28;5023139;28;19952;-70